Time;durP1;ratioP1;P1;durP2;ratioP2;P2;SDS_P1;SDS_P2;PMS_P1;PMS_P2;Temp;Humidity;BMP_temperature;BMP_pressure;BME280_temperature;BME280_humidity;BME280_pressure;Samples;Min_cycle;Max_cycle;Signal;HPM_P1;HPM_P2
2022/05/14 00:00:07;;;;;;;;;;;;;;;21.65;43.51;101935.59;5075879;28;20318;-79
2022/05/14 00:02:33;;;;;;;;;;;;;;;21.64;43.46;101945.75;5076916;28;19954;-78
2022/05/14 00:04:58;;;;;;;;;;;;;;;21.65;43.71;101932.84;5076032;28;19943;-79
2022/05/14 00:07:23;;;;;;;;;;;;;;;21.63;43.78;101933.13;5075316;28;20384;-78
2022/05/14 00:09:48;;;;;;;;;;;;;;;21.63;43.47;101944.13;5075370;28;20492;-79
2022/05/14 00:14:58;;;;;;;;;;;;;;;21.64;43.77;101934.75;5075969;28;20251;-77
2022/05/14 00:17:23;;;;;;;;;;;;;;;21.64;43.54;101932.00;5075307;28;19920;-76
2022/05/14 00:19:48;;;;;;;;;;;;;;;21.66;43.51;101931.72;5076727;28;20280;-78
2022/05/14 00:22:13;;;;;;;;;;;;;;;21.66;43.70;101926.22;5075859;28;19974;-77
2022/05/14 00:24:39;;;;;;;;;;;;;;;21.66;43.69;101928.97;5074410;28;19935;-76
2022/05/14 00:27:04;;;;;;;;;;;;;;;21.66;43.64;101931.72;5076412;28;19938;-77
2022/05/14 00:29:30;;;;;;;;;;;;;;;21.65;43.63;101930.91;5075063;28;19932;-76
2022/05/14 00:31:55;;;;;;;;;;;;;;;21.66;43.90;101931.72;5058353;28;20407;-77
2022/05/14 00:34:21;;;;;;;;;;;;;;;21.65;43.76;101925.41;5074945;28;19921;-77
2022/05/14 00:36:46;;;;;;;;;;;;;;;21.64;43.59;101926.50;5076074;28;20299;-77
2022/05/14 00:39:11;;;;;;;;;;;;;;;21.65;43.58;101919.09;5074859;28;19917;-77
2022/05/14 00:41:38;;;;;;;;;;;;;;;21.64;43.54;101921.00;5075638;28;20323;-77
2022/05/14 00:44:03;;;;;;;;;;;;;;;21.63;43.69;101922.13;5075083;28;19969;-77
2022/05/14 00:46:29;;;;;;;;;;;;;;;21.64;43.67;101923.75;5076386;28;20376;-77
2022/05/14 00:48:57;;;;;;;;;;;;;;;21.63;43.50;101918.56;5075906;28;19916;-77
2022/05/14 00:51:28;;;;;;;;;;;;;;;21.61;43.82;101925.16;5075417;28;19916;-77
2022/05/14 00:54:13;;;;;;;;;;;;;;;21.62;43.77;101920.50;5074847;28;19983;-76
2022/05/14 00:56:59;;;;;;;;;;;;;;;21.61;43.45;101919.66;5073604;28;19916;-77
2022/05/14 00:59:25;;;;;;;;;;;;;;;21.61;43.71;101910.59;5075861;28;19970;-77
2022/05/14 01:01:50;;;;;;;;;;;;;;;21.61;43.40;101918.84;5074358;28;19940;-77
2022/05/14 01:04:17;;;;;;;;;;;;;;;21.60;43.51;101918.03;5075671;28;19922;-77
2022/05/14 01:06:47;;;;;;;;;;;;;;;21.59;43.69;101910.88;5074294;28;19967;-77
2022/05/14 01:09:12;;;;;;;;;;;;;;;21.59;43.66;101904.56;5075938;28;20021;-76
2022/05/14 01:11:38;;;;;;;;;;;;;;;21.58;43.49;101909.25;5075323;28;19975;-77
2022/05/14 01:14:04;;;;;;;;;;;;;;;21.59;43.80;101904.56;5074419;28;19924;-77
2022/05/14 01:16:29;;;;;;;;;;;;;;;21.57;43.46;101913.13;5076082;28;19926;-76
2022/05/14 01:18:55;;;;;;;;;;;;;;;21.56;43.43;101903.22;5074195;28;19927;-77
2022/05/14 01:21:28;;;;;;;;;;;;;;;21.58;43.41;101909.25;5074130;28;19978;-76
2022/05/14 01:26:47;;;;;;;;;;;;;;;21.56;43.47;101910.66;5075574;28;19935;-76
2022/05/14 01:29:15;;;;;;;;;;;;;;;21.55;43.35;101907.09;5074000;28;19921;-76
2022/05/14 01:31:41;;;;;;;;;;;;;;;21.55;43.36;101904.34;5073521;28;19935;-76
2022/05/14 01:34:09;;;;;;;;;;;;;;;21.55;43.60;101909.84;5073826;28;19927;-77
2022/05/14 01:36:35;;;;;;;;;;;;;;;21.53;43.71;101912.03;5075284;28;19931;-77
2022/05/14 01:39:01;;;;;;;;;;;;;;;21.53;43.45;101911.22;5074926;28;20027;-77
2022/05/14 01:41:26;;;;;;;;;;;;;;;21.53;43.49;101917.53;5074643;28;20378;-76
2022/05/14 01:43:52;;;;;;;;;;;;;;;21.53;43.38;101913.97;5075138;28;19930;-79
2022/05/14 01:46:17;;;;;;;;;;;;;;;21.52;43.32;101918.66;5075345;28;19966;-77
2022/05/14 01:48:43;;;;;;;;;;;;;;;21.51;43.39;101917.00;5073797;28;19954;-77
2022/05/14 01:51:08;;;;;;;;;;;;;;;21.52;43.69;101921.41;5073283;28;19934;-77
2022/05/14 01:53:33;;;;;;;;;;;;;;;21.52;43.52;101915.06;5074703;28;20029;-77
2022/05/14 01:55:59;;;;;;;;;;;;;;;21.51;43.35;101917.00;5074671;28;19939;-77
2022/05/14 01:58:37;;;;;;;;;;;;;;;21.51;43.57;101918.94;5074138;28;19931;-77
2022/05/14 02:01:16;;;;;;;;;;;;;;;21.49;43.50;101913.72;5073771;28;19921;-76
2022/05/14 02:03:48;;;;;;;;;;;;;;;21.49;43.32;101927.47;5074051;28;19950;-76
2022/05/14 02:06:14;;;;;;;;;;;;;;;21.48;43.54;101925.03;5074620;28;19983;-77
2022/05/14 02:08:40;;;;;;;;;;;;;;;21.48;43.63;101923.09;5075028;28;20337;-76
2022/05/14 02:11:05;;;;;;;;;;;;;;;21.48;43.44;101927.75;5072839;28;20344;-76
2022/05/14 02:13:30;;;;;;;;;;;;;;;21.47;43.36;101920.59;5074382;28;19943;-76
2022/05/14 02:15:56;;;;;;;;;;;;;;;21.47;43.35;101921.47;5073680;28;19943;-77
2022/05/14 02:18:22;;;;;;;;;;;;;;;21.47;43.35;101926.94;5074258;28;19927;-77
2022/05/14 02:20:47;;;;;;;;;;;;;;;21.46;43.65;101927.22;5074266;28;19953;-77
2022/05/14 02:23:13;;;;;;;;;;;;;;;21.46;43.36;101930.78;5073725;28;19951;-76
2022/05/14 02:25:38;;;;;;;;;;;;;;;21.45;43.62;101928.34;5074155;28;19943;-77
2022/05/14 02:28:04;;;;;;;;;;;;;;;21.45;43.66;101933.84;5074106;28;20011;-77
2022/05/14 02:30:29;;;;;;;;;;;;;;;21.45;43.39;101925.59;5074116;28;20289;-77
2022/05/14 02:32:54;;;;;;;;;;;;;;;21.44;43.69;101926.69;5074503;28;19982;-77
2022/05/14 02:35:20;;;;;;;;;;;;;;;21.44;43.34;101927.50;5074099;28;20345;-76
2022/05/14 02:37:45;;;;;;;;;;;;;;;21.44;43.30;101926.69;5056367;28;19947;-77
2022/05/14 02:40:10;;;;;;;;;;;;;;;21.43;43.46;101927.81;5072800;28;19951;-76
2022/05/14 02:42:36;;;;;;;;;;;;;;;21.43;43.23;101934.13;5074427;28;19960;-76
2022/05/14 02:45:02;;;;;;;;;;;;;;;21.42;43.54;101929.75;5074211;28;19950;-77
2022/05/14 02:47:27;;;;;;;;;;;;;;;21.42;43.34;101937.16;5071893;28;19932;-77
2022/05/14 02:49:52;;;;;;;;;;;;;;;21.41;43.56;101933.59;5073198;28;20023;-77
2022/05/14 02:52:17;;;;;;;;;;;;;;;21.40;43.43;101934.69;5072731;28;20033;-77
2022/05/14 02:54:43;;;;;;;;;;;;;;;21.40;43.60;101937.44;5072609;28;19925;-76
2022/05/14 02:57:08;;;;;;;;;;;;;;;21.40;43.39;101929.19;5072556;28;20279;-77
2022/05/14 02:59:33;;;;;;;;;;;;;;;21.39;43.41;101931.13;5072676;28;19982;-77
2022/05/14 03:01:59;;;;;;;;;;;;;;;21.38;43.56;101934.97;5073748;28;19927;-77
2022/05/14 03:04:26;;;;;;;;;;;;;;;21.39;43.58;101935.78;5072547;28;19921;-77
2022/05/14 03:06:52;;;;;;;;;;;;;;;21.38;43.40;101937.72;5072477;28;19916;-77
2022/05/14 03:09:17;;;;;;;;;;;;;;;21.38;43.64;101931.38;5073681;28;19980;-76
2022/05/14 03:11:43;;;;;;;;;;;;;;;21.38;43.55;101931.38;5073732;28;19930;-77
2022/05/14 03:14:09;;;;;;;;;;;;;;;21.37;43.54;101929.75;5072693;28;19924;-77
2022/05/14 03:16:35;;;;;;;;;;;;;;;21.36;43.38;101934.41;5072605;28;19923;-77
2022/05/14 03:19:00;;;;;;;;;;;;;;;21.36;43.52;101930.84;5074091;28;19943;-76
2022/05/14 03:21:25;;;;;;;;;;;;;;;21.35;43.59;101930.03;5072583;28;19951;-77
2022/05/14 03:23:51;;;;;;;;;;;;;;;21.36;43.63;101928.09;5055854;28;20410;-77
2022/05/14 03:26:16;;;;;;;;;;;;;;;21.35;43.55;101927.28;5073815;28;19930;-77
2022/05/14 03:28:41;;;;;;;;;;;;;;;21.35;43.35;101929.22;5072650;28;19943;-76
2022/05/14 03:31:06;;;;;;;;;;;;;;;21.33;43.63;101926.75;5073479;28;19943;-77
2022/05/14 03:33:32;;;;;;;;;;;;;;;21.34;43.52;101930.31;5055580;28;20322;-77
2022/05/14 03:35:57;;;;;;;;;;;;;;;21.34;43.48;101931.16;5072197;28;19930;-77
2022/05/14 03:38:23;;;;;;;;;;;;;;;21.34;43.70;101924.81;5073920;28;20252;-76
2022/05/14 03:40:48;;;;;;;;;;;;;;;21.32;43.63;101925.13;5072579;28;19982;-77
2022/05/14 03:43:14;;;;;;;;;;;;;;;21.32;43.63;101930.59;5071995;28;19924;-76
2022/05/14 03:45:39;;;;;;;;;;;;;;;21.33;43.27;101934.16;5072383;28;19928;-76
2022/05/14 03:48:04;;;;;;;;;;;;;;;21.31;43.65;101931.69;5072001;28;20395;-77
2022/05/14 03:50:30;;;;;;;;;;;;;;;21.32;43.65;101927.03;5072163;28;19992;-77
2022/05/14 03:52:55;;;;;;;;;;;;;;;21.30;43.43;101932.81;5073625;28;19942;-77
2022/05/14 03:55:20;;;;;;;;;;;;;;;21.30;43.16;101934.75;5072620;28;20263;-77
2022/05/14 03:57:45;;;;;;;;;;;;;;;21.30;43.40;101938.31;5073426;28;20023;-77
2022/05/14 04:00:11;;;;;;;;;;;;;;;21.31;43.25;101930.88;5057680;28;19924;-77
2022/05/14 04:02:36;;;;;;;;;;;;;;;21.30;43.28;101929.25;5076644;28;20418;-77
2022/05/14 04:05:02;;;;;;;;;;;;;;;21.30;43.49;101932.00;5076781;28;19934;-77
2022/05/14 04:07:27;;;;;;;;;;;;;;;21.29;43.30;101939.44;5075536;28;20088;-77
2022/05/14 04:09:53;;;;;;;;;;;;;;;21.28;43.54;101934.22;5076718;28;19934;-77
2022/05/14 04:12:18;;;;;;;;;;;;;;;21.28;43.56;101932.28;5076382;28;19920;-77
2022/05/14 04:14:44;;;;;;;;;;;;;;;21.28;43.24;101934.22;5076801;28;19989;-77
2022/05/14 04:17:09;;;;;;;;;;;;;;;21.28;43.59;101928.72;5075336;28;19916;-77
2022/05/14 04:19:34;;;;;;;;;;;;;;;21.27;43.55;101941.63;5076089;28;19934;-77
2022/05/14 04:22:00;;;;;;;;;;;;;;;21.28;43.31;101939.72;5077026;28;20283;-77
2022/05/14 04:24:25;;;;;;;;;;;;;;;21.28;43.31;101939.72;5075279;28;19942;-77
2022/05/14 04:26:50;;;;;;;;;;;;;;;21.27;43.63;101947.13;5076410;28;19949;-77
2022/05/14 04:29:15;;;;;;;;;;;;;;;21.27;43.68;101940.78;5058405;28;19920;-77
2022/05/14 04:31:41;;;;;;;;;;;;;;;21.26;43.29;101939.97;5075054;28;19947;-77
2022/05/14 04:34:06;;;;;;;;;;;;;;;21.26;43.29;101939.16;5076490;28;20376;-77
2022/05/14 04:36:31;;;;;;;;;;;;;;;21.26;43.29;101941.91;5075544;28;20041;-77
2022/05/14 04:38:57;;;;;;;;;;;;;;;21.25;43.49;101941.09;5058222;28;19935;-77
2022/05/14 04:41:24;;;;;;;;;;;;;;;21.25;43.31;101952.09;5076135;28;20015;-77
2022/05/14 04:43:49;;;;;;;;;;;;;;;21.25;43.33;101946.59;5074634;28;20308;-77
2022/05/14 04:46:15;;;;;;;;;;;;;;;21.25;43.78;101948.53;5076050;28;20048;-77
2022/05/14 04:48:40;;;;;;;;;;;;;;;21.25;43.22;101949.34;5058943;28;19947;-77
2022/05/14 04:51:06;;;;;;;;;;;;;;;21.25;43.33;101951.28;5075773;28;20378;-77
2022/05/14 04:53:31;;;;;;;;;;;;;;;21.26;43.57;101947.41;5076610;28;19942;-77
2022/05/14 04:55:56;;;;;;;;;;;;;;;21.24;43.46;101947.69;5074809;28;19942;-77
2022/05/14 04:58:21;;;;;;;;;;;;;;;21.25;43.35;101954.03;5075166;28;19939;-77
2022/05/14 05:00:47;;;;;;;;;;;;;;;21.25;43.15;101956.78;5057752;28;19970;-76
2022/05/14 05:03:22;;;;;;;;;;;;;;;21.26;43.59;101955.66;5075801;28;19916;-77
2022/05/14 05:05:49;;;;;;;;;;;;;;;21.26;43.60;101950.16;5074742;28;19940;-77
2022/05/14 05:08:15;;;;;;;;;;;;;;;21.25;43.32;101952.09;5075352;28;19923;-77
2022/05/14 05:10:40;;;;;;;;;;;;;;;21.26;43.31;101947.41;5075083;28;20385;-77
2022/05/14 05:13:13;;;;;;;;;;;;;;;21.26;43.32;101950.16;5075558;28;19988;-77
2022/05/14 05:15:39;;;;;;;;;;;;;;;21.25;43.25;101952.09;5076167;28;19997;-77
2022/05/14 05:18:05;;;;;;;;;;;;;;;21.27;43.36;101962.78;5075645;28;19978;-77
2022/05/14 05:20:31;;;;;;;;;;;;;;;21.26;43.38;101958.41;5075882;28;19953;-77
2022/05/14 05:22:56;;;;;;;;;;;;;;;21.26;43.44;101961.16;5075353;28;19943;-77
2022/05/14 05:25:21;;;;;;;;;;;;;;;21.26;43.60;101961.16;5075009;28;19927;-77
2022/05/14 05:27:46;;;;;;;;;;;;;;;21.26;43.50;101966.66;5074119;28;19942;-77
2022/05/14 05:30:12;;;;;;;;;;;;;;;21.26;43.56;101974.88;5075142;28;19944;-77
2022/05/14 05:32:37;;;;;;;;;;;;;;;21.25;43.32;101976.81;5075729;28;19993;-76
2022/05/14 05:35:03;;;;;;;;;;;;;;;21.25;43.57;101976.81;5075173;28;20371;-77
2022/05/14 05:37:28;;;;;;;;;;;;;;;21.26;43.38;101972.94;5057057;28;19935;-77
2022/05/14 05:39:54;;;;;;;;;;;;;;;21.25;43.60;101976.81;5075019;28;19920;-77
2022/05/14 05:42:19;;;;;;;;;;;;;;;21.26;43.66;101985.88;5056847;28;19970;-77
2022/05/14 05:44:45;;;;;;;;;;;;;;;21.26;43.57;101978.44;5073862;28;19970;-77
2022/05/14 05:47:10;;;;;;;;;;;;;;;21.26;43.63;101980.38;5074821;28;20072;-78
2022/05/14 05:49:39;;;;;;;;;;;;;;;21.26;43.37;101978.44;5073527;28;19924;-77
2022/05/14 05:52:05;;;;;;;;;;;;;;;21.27;43.53;101984.75;5075020;28;19958;-77
2022/05/14 05:57:14;;;;;;;;;;;;;;;21.26;43.49;101978.44;5074544;28;19946;-78
2022/05/14 05:59:40;;;;;;;;;;;;;;;21.26;43.57;101980.38;5074711;28;20027;-78
2022/05/14 06:02:06;;;;;;;;;;;;;;;21.26;43.29;101983.13;5074078;28;20016;-77
2022/05/14 06:04:31;;;;;;;;;;;;;;;21.26;43.63;101986.69;5073981;28;19958;-78
2022/05/14 06:06:56;;;;;;;;;;;;;;;21.27;43.59;101998.50;5074049;28;19948;-78
2022/05/14 06:09:24;;;;;;;;;;;;;;;21.26;43.73;101988.63;5073223;28;19920;-78
2022/05/14 06:11:50;;;;;;;;;;;;;;;21.27;43.50;101990.25;5074736;28;19923;-78
2022/05/14 06:14:16;;;;;;;;;;;;;;;21.26;43.65;101989.44;5074302;28;20252;-78
2022/05/14 06:16:41;;;;;;;;;;;;;;;21.27;43.42;101996.59;5073787;28;19935;-77
2022/05/14 06:19:06;;;;;;;;;;;;;;;21.27;43.37;101998.50;5074340;28;20268;-77
2022/05/14 06:21:32;;;;;;;;;;;;;;;21.27;43.38;101999.34;5074279;28;20033;-78
2022/05/14 06:23:57;;;;;;;;;;;;;;;21.26;43.53;101994.94;5074032;28;19962;-77
2022/05/14 06:26:22;;;;;;;;;;;;;;;21.28;43.57;101991.91;5073004;28;19960;-78
2022/05/14 06:28:48;;;;;;;;;;;;;;;21.27;43.37;101991.09;5074000;28;19930;-78
2022/05/14 06:31:16;;;;;;;;;;;;;;;21.27;43.49;101991.09;5073046;28;20342;-78
2022/05/14 06:33:43;;;;;;;;;;;;;;;21.27;43.74;101998.50;5074022;28;19969;-78
2022/05/14 06:36:08;;;;;;;;;;;;;;;21.27;43.61;102013.09;5072858;28;19928;-78
2022/05/14 06:38:33;;;;;;;;;;;;;;;21.26;43.45;102014.19;5072567;28;20319;-77
2022/05/14 06:41:03;;;;;;;;;;;;;;;21.27;43.29;102012.25;5072866;28;20008;-76
2022/05/14 06:43:30;;;;;;;;;;;;;;;21.26;43.56;102005.94;5072008;28;20311;-77
2022/05/14 06:45:56;;;;;;;;;;;;;;;21.28;43.36;102011.16;5073990;28;20441;-77
2022/05/14 06:48:22;;;;;;;;;;;;;;;21.27;43.41;102013.09;5072605;28;20049;-78
2022/05/14 06:50:48;;;;;;;;;;;;;;;21.28;43.43;102027.66;5072612;28;19981;-77
2022/05/14 06:53:14;;;;;;;;;;;;;;;21.27;43.30;102010.34;5072800;28;19987;-77
2022/05/14 06:55:41;;;;;;;;;;;;;;;21.27;43.45;102013.09;5073641;28;20003;-77
2022/05/14 06:58:09;;;;;;;;;;;;;;;21.28;43.54;102016.66;5072971;28;19949;-76
2022/05/14 07:00:34;;;;;;;;;;;;;;;21.28;43.65;102016.66;5073689;28;19920;-76
2022/05/14 07:08:27;;;;;;;;;;;;;;;21.28;43.63;102020.22;5073471;28;19966;-77
2022/05/14 07:10:52;;;;;;;;;;;;;;;21.29;43.69;102026.53;5074257;28;19946;-77
2022/05/14 07:13:18;;;;;;;;;;;;;;;21.28;43.52;102019.41;5073169;28;19972;-77
2022/05/14 07:15:43;;;;;;;;;;;;;;;21.29;43.80;102024.63;5072440;28;19954;-77
2022/05/14 07:18:08;;;;;;;;;;;;;;;21.28;43.82;102020.22;5072466;28;19916;-77
2022/05/14 07:20:33;;;;;;;;;;;;;;;21.28;43.86;102014.72;5073607;28;19917;-76
2022/05/14 07:22:59;;;;;;;;;;;;;;;21.29;43.84;102024.63;5056496;28;20017;-77
2022/05/14 07:25:26;;;;;;;;;;;;;;;21.29;43.57;102021.88;5073274;28;19990;-77
2022/05/14 07:27:51;;;;;;;;;;;;;;;21.30;43.74;102025.44;5072302;28;20439;-76
2022/05/14 07:30:17;;;;;;;;;;;;;;;21.30;43.64;102023.50;5072351;28;19925;-76
2022/05/14 07:32:42;;;;;;;;;;;;;;;21.30;43.77;102012.50;5072826;28;19920;-77
2022/05/14 07:35:07;;;;;;;;;;;;;;;21.30;43.62;102014.44;5076744;28;20021;-76
2022/05/14 07:37:34;;;;;;;;;;;;;;;21.31;43.81;102018.81;5076604;28;19974;-77
2022/05/14 07:39:59;;;;;;;;;;;;;;;21.31;43.92;102022.38;5076056;28;19937;-77
2022/05/14 07:42:28;;;;;;;;;;;;;;;21.31;43.92;102029.81;5076183;28;19920;-77
2022/05/14 07:44:55;;;;;;;;;;;;;;;21.31;43.78;102024.31;5077264;28;19921;-77
2022/05/14 07:47:21;;;;;;;;;;;;;;;21.32;43.87;102023.22;5076391;28;19920;-77
2022/05/14 07:49:47;;;;;;;;;;;;;;;21.33;43.77;102027.63;5077455;28;20036;-76
2022/05/14 07:52:14;;;;;;;;;;;;;;;21.32;43.81;102026.78;5077155;28;20394;-77
2022/05/14 07:54:39;;;;;;;;;;;;;;;21.33;43.77;102031.19;5075709;28;19951;-78
2022/05/14 07:57:06;;;;;;;;;;;;;;;21.33;44.06;102033.09;5075385;28;19940;-77
2022/05/14 07:59:32;;;;;;;;;;;;;;;21.34;43.77;102035.59;5075862;28;19954;-77
2022/05/14 08:01:57;;;;;;;;;;;;;;;21.34;43.88;102027.34;5076902;28;20310;-77
2022/05/14 08:04:23;;;;;;;;;;;;;;;21.34;44.11;102032.84;5076531;28;19921;-79
2022/05/14 08:06:48;;;;;;;;;;;;;;;21.36;44.19;102033.34;5076785;28;19928;-78
2022/05/14 08:09:13;;;;;;;;;;;;;;;21.37;44.10;102036.94;5077222;28;20271;-79
2022/05/14 08:11:39;;;;;;;;;;;;;;;21.37;44.27;102035.00;5077342;28;19970;-79
2022/05/14 08:14:04;;;;;;;;;;;;;;;21.39;44.48;102034.75;5077024;28;20371;-79
2022/05/14 08:16:30;;;;;;;;;;;;;;;21.39;44.60;102030.09;5076038;28;20355;-78
2022/05/14 08:18:55;;;;;;;;;;;;;;;21.39;44.56;102019.09;5075770;28;19955;-79
2022/05/14 08:26:49;;;;;;;;;;;;;;;21.42;44.57;102031.44;5077345;28;20393;-78
2022/05/14 08:29:15;;;;;;;;;;;;;;;21.43;44.51;102035.00;5077181;28;19930;-78
2022/05/14 08:31:40;;;;;;;;;;;;;;;21.43;44.75;102024.84;5075939;28;20365;-78
2022/05/14 08:34:05;;;;;;;;;;;;;;;21.43;45.03;102035.81;5077068;28;20317;-77
2022/05/14 08:36:31;;;;;;;;;;;;;;;21.44;45.20;102034.72;5077224;28;19920;-78
2022/05/14 08:38:56;;;;;;;;;;;;;;;21.45;44.91;102035.56;5077102;28;19921;-79
2022/05/14 08:41:22;;;;;;;;;;;;;;;21.46;45.40;102037.19;5075227;28;19920;-78
2022/05/14 08:43:50;;;;;;;;;;;;;;;21.46;45.41;102029.75;5077236;28;19966;-79
2022/05/14 08:46:18;;;;;;;;;;;;;;;21.47;45.35;102023.16;5076691;28;20049;-78
2022/05/14 08:48:46;;;;;;;;;;;;;;;21.48;45.52;102027.53;5076325;28;19958;-76
2022/05/14 08:51:14;;;;;;;;;;;;;;;21.48;45.26;102037.72;5074855;28;19935;-78
2022/05/14 08:53:41;;;;;;;;;;;;;;;21.49;45.39;102039.34;5075916;28;19927;-79
2022/05/14 08:56:07;;;;;;;;;;;;;;;21.50;45.24;102033.59;5075650;28;19965;-77
2022/05/14 08:58:47;;;;;;;;;;;;;;;21.50;45.59;102033.59;5076290;28;20344;-79
2022/05/14 09:01:16;;;;;;;;;;;;;;;21.50;45.30;102030.84;5075761;28;20039;-78
2022/05/14 09:03:43;;;;;;;;;;;;;;;21.52;45.44;102031.38;5075332;28;19920;-79
2022/05/14 09:06:08;;;;;;;;;;;;;;;21.51;45.56;102029.72;5075128;28;19917;-80
2022/05/14 09:08:33;;;;;;;;;;;;;;;21.53;45.43;102029.44;5075348;28;19938;-80
2022/05/14 09:11:00;;;;;;;;;;;;;;;21.52;45.45;102034.13;5074435;28;19950;-79
2022/05/14 09:13:27;;;;;;;;;;;;;;;21.54;45.76;102039.31;5075076;28;19916;-79
2022/05/14 09:15:57;;;;;;;;;;;;;;;21.54;45.26;102033.81;5075204;28;20313;-80
2022/05/14 09:18:30;;;;;;;;;;;;;;;21.55;45.58;102029.97;5075199;28;19916;-79
2022/05/14 09:20:55;;;;;;;;;;;;;;;21.54;45.32;102031.88;5073806;28;20011;-77
2022/05/14 09:23:29;;;;;;;;;;;;;;;21.55;45.33;102024.50;5073796;28;20013;-80
2022/05/14 09:25:55;;;;;;;;;;;;;;;21.56;45.36;102034.38;5073757;28;20381;-80
2022/05/14 09:28:43;;;;;;;;;;;;;;;21.56;45.35;102023.38;5074021;28;19958;-80
2022/05/14 09:31:09;;;;;;;;;;;;;;;21.56;45.29;102021.44;5055803;28;19932;-79
2022/05/14 09:33:38;;;;;;;;;;;;;;;21.57;45.58;102025.84;5073850;28;19945;-79
2022/05/14 09:36:04;;;;;;;;;;;;;;;21.57;45.25;102019.50;5074325;28;20264;-78
2022/05/14 09:38:30;;;;;;;;;;;;;;;21.57;45.33;102025.84;5073293;28;19990;-80
2022/05/14 09:41:07;;;;;;;;;;;;;;;21.58;45.46;102029.41;5073702;28;19940;-77
2022/05/14 09:43:35;;;;;;;;;;;;;;;21.58;45.19;102013.72;5075097;28;20011;-78
2022/05/14 09:46:02;;;;;;;;;;;;;;;21.58;45.14;102021.97;5073463;28;20291;-79
2022/05/14 09:48:30;;;;;;;;;;;;;;;21.59;45.22;102015.34;5075183;28;19934;-78
2022/05/14 09:50:57;;;;;;;;;;;;;;;21.58;45.12;102013.72;5073599;28;19925;-77
2022/05/14 09:53:31;;;;;;;;;;;;;;;21.59;44.90;102015.34;5073558;28;19973;-78
2022/05/14 09:56:16;;;;;;;;;;;;;;;21.59;45.28;102015.34;5074126;28;19927;-78
2022/05/14 09:58:44;;;;;;;;;;;;;;;21.59;45.38;102020.84;5073554;28;19924;-79
2022/05/14 10:01:14;;;;;;;;;;;;;;;21.60;45.33;102033.50;5073037;28;19958;-78
2022/05/14 10:03:39;;;;;;;;;;;;;;;21.60;45.21;102030.75;5074401;28;20375;-78
2022/05/14 10:06:11;;;;;;;;;;;;;;;21.60;44.96;102019.75;5074852;28;19934;-79
2022/05/14 10:08:43;;;;;;;;;;;;;;;21.60;44.93;102019.75;5073586;28;20256;-79
2022/05/14 10:11:15;;;;;;;;;;;;;;;21.60;45.14;102022.50;5072883;28;19923;-78
2022/05/14 10:13:54;;;;;;;;;;;;;;;21.60;44.87;102019.75;5074208;28;19981;-78
2022/05/14 10:16:19;;;;;;;;;;;;;;;21.60;44.93;102019.75;5074071;28;20306;-78
2022/05/14 10:19:07;;;;;;;;;;;;;;;21.60;45.20;102017.00;5074405;28;19916;-78
2022/05/14 10:21:35;;;;;;;;;;;;;;;21.61;44.79;102015.91;5054530;28;20015;-78
2022/05/14 10:27:02;;;;;;;;;;;;;;;21.60;44.74;102022.50;5074627;28;20113;-78
2022/05/14 10:29:36;;;;;;;;;;;;;;;21.61;44.62;102012.31;5073753;28;19940;-79
2022/05/14 10:32:02;;;;;;;;;;;;;;;21.60;44.61;102017.00;5073092;28;19935;-78
2022/05/14 10:34:50;;;;;;;;;;;;;;;21.60;44.90;102010.69;5072745;28;19942;-79
2022/05/14 10:37:24;;;;;;;;;;;;;;;21.61;44.87;102015.91;5054409;28;19945;-78
2022/05/14 10:39:58;;;;;;;;;;;;;;;21.61;44.91;102021.41;5073683;28;19928;-79
2022/05/14 10:42:29;;;;;;;;;;;;;;;21.62;44.94;102005.75;5073731;28;19921;-79
2022/05/14 10:45:06;;;;;;;;;;;;;;;21.63;44.52;102017.56;5072816;28;19916;-78
2022/05/14 10:47:32;;;;;;;;;;;;;;;21.63;44.50;102010.13;5072846;28;20045;-78
2022/05/14 10:50:02;;;;;;;;;;;;;;;21.63;44.60;102017.56;5073725;28;19960;-77
2022/05/14 10:52:28;;;;;;;;;;;;;;;21.63;44.52;102025.81;5074652;28;19949;-78
2022/05/14 10:54:53;;;;;;;;;;;;;;;21.64;44.44;102020.00;5073751;28;20449;-78
2022/05/14 10:57:18;;;;;;;;;;;;;;;21.64;44.42;102016.44;5073776;28;20285;-76
2022/05/14 10:59:44;;;;;;;;;;;;;;;21.65;44.63;102009.84;5073482;28;19913;-81
2022/05/14 11:02:32;;;;;;;;;;;;;;;21.65;44.41;102018.09;5073586;28;20031;-77
2022/05/14 11:04:58;;;;;;;;;;;;;;;21.66;44.40;102014.22;5067962;28;19912;-77
2022/05/14 11:07:27;;;;;;;;;;;;;;;21.66;44.69;102026.03;5073944;28;19912;-77
2022/05/14 11:09:52;;;;;;;;;;;;;;;21.67;44.44;102022.19;5077241;28;19944;-77
2022/05/14 11:12:18;;;;;;;;;;;;;;;21.67;44.24;102005.69;5078238;28;19943;-77
2022/05/14 11:14:47;;;;;;;;;;;;;;;21.67;44.35;102013.09;5077359;28;20408;-77
2022/05/14 11:17:23;;;;;;;;;;;;;;;21.68;44.64;102021.09;5077629;28;19923;-77
2022/05/14 11:19:50;;;;;;;;;;;;;;;21.68;44.50;102023.00;5076539;28;20010;-77
2022/05/14 11:22:23;;;;;;;;;;;;;;;21.68;44.26;102020.25;5077441;28;19990;-77
2022/05/14 11:24:49;;;;;;;;;;;;;;;21.68;44.27;102018.34;5076203;28;20335;-77
2022/05/14 11:27:23;;;;;;;;;;;;;;;21.69;44.23;102013.66;5077456;28;19934;-77
2022/05/14 11:30:00;;;;;;;;;;;;;;;21.69;44.27;102010.91;5076721;28;19912;-77
2022/05/14 11:32:26;;;;;;;;;;;;;;;21.70;44.19;102004.31;5076554;28;19933;-77
2022/05/14 11:34:53;;;;;;;;;;;;;;;21.71;44.36;102005.94;5076779;28;19924;-77
2022/05/14 11:37:33;;;;;;;;;;;;;;;21.71;44.17;102017.75;5076919;28;20298;-77
2022/05/14 11:40:18;;;;;;;;;;;;;;;21.71;44.13;102019.69;5077053;28;19922;-77
2022/05/14 11:42:46;;;;;;;;;;;;;;;21.72;44.41;102019.41;5077148;28;19958;-77
2022/05/14 11:45:22;;;;;;;;;;;;;;;21.72;44.28;102016.66;5077153;28;20348;-77
2022/05/14 11:48:07;;;;;;;;;;;;;;;21.72;44.17;102015.81;5077023;28;19931;-78
2022/05/14 11:50:47;;;;;;;;;;;;;;;21.73;44.07;102009.22;5076442;28;20272;-78
2022/05/14 11:53:17;;;;;;;;;;;;;;;21.73;44.07;102012.78;5076518;28;19946;-78
2022/05/14 11:55:53;;;;;;;;;;;;;;;21.74;44.23;102008.91;5076831;28;19933;-78
2022/05/14 11:58:25;;;;;;;;;;;;;;;21.75;44.03;102009.75;5075644;28;20284;-78
2022/05/14 12:00:52;;;;;;;;;;;;;;;21.76;44.29;102014.16;5077165;28;19999;-77
2022/05/14 12:03:26;;;;;;;;;;;;;;;21.75;44.35;102007.81;5077246;28;20356;-77
2022/05/14 12:05:57;;;;;;;;;;;;;;;21.76;43.99;102005.91;5076669;28;20419;-78
2022/05/14 12:08:23;;;;;;;;;;;;;;;21.77;44.04;102007.53;5077247;28;19927;-78
2022/05/14 12:10:57;;;;;;;;;;;;;;;21.77;44.09;102007.53;5076780;28;19939;-78
2022/05/14 12:13:31;;;;;;;;;;;;;;;21.78;44.42;102006.44;5076628;28;19920;-78
2022/05/14 12:15:57;;;;;;;;;;;;;;;21.78;44.22;101999.00;5075167;28;20000;-77
2022/05/14 12:18:23;;;;;;;;;;;;;;;21.78;44.06;101996.25;5076486;28;19939;-77
2022/05/14 12:21:03;;;;;;;;;;;;;;;21.80;44.43;101998.72;5073932;28;20003;-77
2022/05/14 12:23:46;;;;;;;;;;;;;;;21.81;44.13;101994.84;5076371;28;19942;-77
2022/05/14 12:26:37;;;;;;;;;;;;;;;21.81;44.32;101992.09;5076302;28;19928;-77
2022/05/14 12:29:12;;;;;;;;;;;;;;;21.81;44.32;102000.34;5073983;28;20268;-79
2022/05/14 12:34:31;;;;;;;;;;;;;;;21.83;44.19;101987.94;5076011;28;20433;-77
2022/05/14 12:36:57;;;;;;;;;;;;;;;21.84;44.37;101988.75;5075122;28;19917;-77
2022/05/14 12:39:24;;;;;;;;;;;;;;;21.85;44.18;101984.91;5076110;28;19930;-77
2022/05/14 12:41:54;;;;;;;;;;;;;;;21.85;44.20;101973.91;5076530;28;19916;-78
2022/05/14 12:44:21;;;;;;;;;;;;;;;21.86;44.24;101975.56;5076039;28;19937;-79
2022/05/14 12:46:48;;;;;;;;;;;;;;;21.87;44.16;101974.44;5075144;28;19984;-79
2022/05/14 12:49:23;;;;;;;;;;;;;;;21.88;44.16;101975.28;5076472;28;19927;-79
2022/05/14 12:51:49;;;;;;;;;;;;;;;21.88;44.48;101970.59;5076039;28;19913;-78
2022/05/14 12:54:19;;;;;;;;;;;;;;;21.88;44.48;101973.34;5075251;28;19913;-79
2022/05/14 12:56:44;;;;;;;;;;;;;;;21.89;44.22;101969.47;5076013;28;19912;-79
2022/05/14 12:59:09;;;;;;;;;;;;;;;21.90;44.34;101964.78;5075095;28;20283;-79
2022/05/14 13:01:35;;;;;;;;;;;;;;;21.90;44.67;101968.38;5075624;28;20285;-78